• Join FlightAware (Why Join?)
  • Login
  • US Flag 
10:17AM EDT


 

Airport Tracker/Info


-or-


 

Live Flight TrackerFlight Track Log ✈ N408RT ✈ 28-Feb-2012 ✈ KMTH - KDAL

Flight Track Log - Related Links

Times and Time Zones

All times are in EST time to prevent confusion due to time zone crossing. See the N408RT flight status page for this flight to view local times or setup timezone preferences in your user account.

Time Position Orientation Groundspeed Altitude Reporting Facility
EST Latitude Longitude Course Direction KTS MPH feet Rate Location/Type
09:09AM 24.8761 -81.0433 333° Northwest 409 471 10,300  Level Miami Center
09:10AM 24.9397 -81.0797 335° Northwest 319 367 13,300 2,700 Climbing Miami Center
09:11AM 25.0056 -81.1142 333° Northwest 281 323 15,800 2,220 Climbing Miami Center
09:12AM 25.0794 -81.1556 330° Northwest 281 323 17,800 2,280 Climbing Miami Center
09:13AM 25.1533 -81.2019 334° Northwest 287 330 20,400 2,100 Climbing Miami Center
09:14AM 25.2211 -81.2386 334° Northwest 294 338 22,100 2,100 Climbing Miami Center
09:15AM 25.3014 -81.2828 333° Northwest 301 346 24,700 2,340 Climbing Miami Center
09:16AM 25.3814 -81.3272 333° Northwest 306 352 26,800 2,100 Climbing Miami Center
09:17AM 25.4594 -81.3714 333° Northwest 311 358 28,900 2,100 Climbing Miami Center
09:18AM 25.5394 -81.4158 334° Northwest 319 367 31,000 2,040 Climbing Miami Center
09:19AM 25.6175 -81.4581 334° Northwest 313 360 33,000 2,040 Climbing Miami Center
09:20AM 25.6914 -81.4978 332° Northwest 301 346 35,100 1,680 Climbing Miami Center
09:21AM 25.7592 -81.5372 333° Northwest 291 335 36,400 960 Climbing Miami Center
09:22AM 25.8308 -81.5769 333° Northwest 286 329 37,100 660 Climbing Miami Center
09:23AM 25.9047 -81.6189 335° Northwest 286 329 37,800 600 Climbing Miami Center
09:24AM 25.9808 -81.6589 333° Northwest 286 329 38,400 600 Climbing Miami Center
09:25AM 26.0586 -81.7039 334° Northwest 298 343 39,100 600 Climbing Miami Center
09:26AM 26.1364 -81.7461 333° Northwest 303 349 39,700 360 Climbing Miami Center
09:27AM 26.2164 -81.7911 333° Northwest 303 349 39,900 60 Climbing Miami Center
09:28AM 26.2983 -81.8386 336° Northwest 313 360 39,900  Level Miami Center
09:29AM 26.3886 -81.8842 331° Northwest 333 383 39,900  Level Miami Center
09:30AM 26.4806 -81.9414 333° Northwest 344 396 39,900  Level Miami Center
09:31AM 26.5728 -81.9942 332° Northwest 344 396 39,900  Level Miami Center
09:32AM 26.6647 -82.0492 333° Northwest 357 411 39,900  Level Miami Center
09:33AM 26.7567 -82.1022 334° Northwest 367 422 39,900  Level Miami Center
09:34AM 26.8489 -82.1528 333° Northwest 367 422 39,900  Level Miami Center
09:35AM 26.9408 -82.2058 336° Northwest 367 422 39,900  Level Miami Center
09:36AM 27.0350 -82.2522 331° Northwest 367 422 40,000  Climbing Miami Center
09:37AM 27.1267 -82.3100 334° Northwest 367 422 39,900 -60 Descending Miami Center
09:38AM 27.2189 -82.3611 334° Northwest 367 422 39,900  Level Miami Center
09:39AM 27.3047 -82.4072 332° Northwest 373 429 40,000  Climbing Miami Center
09:40AM 27.3964 -82.4631 334° Northwest 373 429 40,000  Level Miami Center
09:41AM 27.5006 -82.5197 333° Northwest 373 429 40,000  Level Miami Center
09:42AM 27.5925 -82.5733 332° Northwest 373 429 40,000  Level Miami Center
09:43AM 27.6739 -82.6219 332° Northwest 373 429 40,000 -60 Level Miami Center
09:44AM 27.8181 -82.7094 332° Northwest 369 425 39,900 -60 Descending Jacksonville Center
09:45AM 27.9078 -82.7633 334° Northwest 369 425 39,900  Level Jacksonville Center
09:46AM 27.9975 -82.8128 332° Northwest 369 425 39,900  Level Jacksonville Center
09:47AM 28.0872 -82.8667 334° Northwest 369 425 39,900  Level Jacksonville Center
09:48AM 28.1750 -82.9161 333° Northwest 369 425 39,900  Level Jacksonville Center
09:49AM 28.2647 -82.9681 331° Northwest 364 419 39,900  Level Jacksonville Center
09:50AM 28.3522 -83.0222 334° Northwest 364 419 39,900  Level Jacksonville Center
09:51AM 28.4419 -83.0719 332° Northwest 359 413 39,900  Level Jacksonville Center
09:52AM 28.5294 -83.1242 332° Northwest 359 413 39,900  Level Jacksonville Center
09:53AM 28.6192 -83.1789 332° Northwest 359 413 39,900  Level Jacksonville Center
09:54AM 28.7067 -83.2311 333° Northwest 353 406 39,900  Level Jacksonville Center
09:55AM 28.7964 -83.2836 333° Northwest 353 406 39,900  Level Jacksonville Center
09:56AM 28.8858 -83.3361 333° Northwest 353 406 39,900  Level Jacksonville Center
09:57AM 28.9753 -83.3886 331° Northwest 353 406 40,000  Climbing Jacksonville Center
09:58AM 29.0628 -83.4436 333° Northwest 353 406 39,900 -60 Descending Jacksonville Center
09:59AM 29.1461 -83.4917 333° Northwest 352 405 39,900  Level Jacksonville Center
10:00AM 29.2356 -83.5447 333° Northwest 352 405 39,900  Level Jacksonville Center
10:01AM 29.3250 -83.5975 333° Northwest 347 399 39,900  Level Jacksonville Center
10:02AM 29.4125 -83.6483 333° Northwest 347 399 39,900  Level Jacksonville Center
10:03AM 29.5019 -83.7014 331° Northwest 347 399 39,900  Level Jacksonville Center
10:04AM 29.5892 -83.7572 332° Northwest 347 399 39,900  Level Jacksonville Center
10:05AM 29.6786 -83.8131 334° Northwest 353 406 39,900  Level Jacksonville Center
10:06AM 29.7681 -83.8639 316° Northwest 353 406 39,900  Level Jacksonville Center
10:07AM 29.8383 -83.9414 301° West 347 399 39,900  Level Jacksonville Center
10:08AM 29.8878 -84.0378 297° West 337 388 39,900  Level Jacksonville Center
10:09AM 29.9306 -84.1364 298° West 342 394 39,900  Level Jacksonville Center
10:10AM 29.9736 -84.2306 296° West 342 394 39,900  Level Jacksonville Center
10:11AM 30.0161 -84.3294 298° West 342 394 39,900  Level Jacksonville Center
10:12AM 30.0611 -84.4261 298° West 342 394 39,900  Level Jacksonville Center
10:13AM 30.1058 -84.5228 297° West 342 394 39,900  Level Jacksonville Center
10:14AM 30.1483 -84.6197 296° West 342 394 39,900  Level Jacksonville Center
10:15AM 30.1908 -84.7189 300° West 342 394 39,900  Level Jacksonville Center
10:16AM 30.2375 -84.8136 296° West 342 394 39,900  Level Jacksonville Center
10:17AM 30.2797 -84.9131 298° West 342 394 39,900  Level Jacksonville Center
10:18AM 30.3242 -85.0103 298° West 342 394 39,900  Level Jacksonville Center
10:19AM 30.3683 -85.1075 297° West 342 394 39,900  Level Jacksonville Center
10:20AM 30.4144 -85.2147 298° West 342 394 39,900  Level Jacksonville Center
10:21AM 30.4586 -85.3119 297° West 342 394 39,900  Level Jacksonville Center
10:22AM 30.5006 -85.4072 297° West 342 394 39,900  Level Jacksonville Center
10:23AM 30.5444 -85.5072 296° West 342 394 39,900  Level Jacksonville Center
10:24AM 30.5842 -85.6025 297° West 342 394 39,900  Level Jacksonville Center
10:25AM 30.6261 -85.6978 296° West 342 394 39,900  Level Jacksonville Center
10:26AM 30.6678 -85.7956 295° West 342 394 39,900  Level Jacksonville Center
10:27AM 30.7072 -85.8933 282° West 342 394 39,900  Level Jacksonville Center
10:28AM 30.7256 -85.9978 277° West 336 387 39,900  Level Jacksonville Center
10:29AM 30.7375 -86.1044 276° West 330 380 39,900  Level Jacksonville Center
10:30AM 30.7472 -86.2114 277° West 330 380 39,900  Level Jacksonville Center
10:31AM 30.7589 -86.3206 278° West 335 386 39,900  Level Jacksonville Center
10:32AM 30.7708 -86.4247 276° West 335 386 40,000  Climbing Jacksonville Center
10:33AM 30.7803 -86.5339 276° West 335 386 39,900 -60 Descending Jacksonville Center
10:34AM 30.7897 -86.6406 280° West 335 386 39,900  Level Jacksonville Center
10:35AM 30.8053 -86.7478 277° West 330 380 40,000  Climbing Jacksonville Center
10:36AM 30.8164 -86.8569 276° West 335 386 40,000  Level Jacksonville Center
10:37AM 30.8258 -86.9614 277° West 335 386 40,000  Level Jacksonville Center
10:38AM 30.8367 -87.0708 277° West 335 386 40,000  Level Jacksonville Center
10:40AM 30.8544 -87.2500 275° West 333 383 40,000  Level Houston Center
10:41AM 30.8622 -87.3561 276° West 333 383 40,000  Level Houston Center
10:42AM 30.8717 -87.4644 278° West 328 377 40,000  Level Houston Center
10:43AM 30.8833 -87.5678 276° West 328 377 40,000  Level Houston Center
10:44AM 30.8928 -87.6764 278° West 335 386 40,000 -60 Level Houston Center
10:45AM 30.9039 -87.7728 279° West 335 386 39,900 -60 Descending Houston Center
10:46AM 30.9175 -87.8786 273° West 335 386 39,900  Level Houston Center
10:47AM 30.9225 -87.9872 278° West 335 386 39,900  Level Houston Center
10:48AM 30.9358 -88.0933 278° West 335 386 39,900  Level Houston Center
10:49AM 30.9489 -88.1994 274° West 335 386 39,900  Level Houston Center
10:50AM 30.9558 -88.3081 273° West 335 386 39,900  Level Houston Center
10:51AM 30.9606 -88.4192 278° West 335 386 39,900  Level Houston Center
10:52AM 30.9736 -88.5228 273° West 335 386 39,900  Level Houston Center
10:53AM 30.9783 -88.6389 275° West 341 392 40,000  Climbing Houston Center
10:54AM 30.9869 -88.7453 275° West 341 392 40,000  Level Houston Center
10:55AM 30.9956 -88.8539 276° West 346 398 40,000  Level Houston Center
10:56AM 31.0058 -88.9603 275° West 341 392 40,000  Level Houston Center
10:57AM 31.0144 -89.0692 275° West 341 392 40,000  Level Houston Center
10:58AM 31.0228 -89.1803 275° West 341 392 40,000  Level Houston Center
10:59AM 31.0308 -89.2867 275° West 341 392 40,000  Level Houston Center
11:00AM 31.0392 -89.3978 275° West 341 392 40,000  Level Houston Center
11:01AM 31.0472 -89.5067 276° West 346 398 40,000  Level Houston Center
11:02AM 31.0572 -89.6131 273° West 346 398 40,000  Level Houston Center
11:03AM 31.0628 -89.7222 276° West 346 398 40,000  Level Houston Center
11:04AM 31.0728 -89.8358 275° West 340 391 40,000  Level Houston Center
11:05AM 31.0806 -89.9425 275° West 335 386 40,000  Level Houston Center
11:06AM 31.0881 -90.0442 275° West 329 379 40,000  Level Houston Center
11:07AM 31.0956 -90.1481 277° West 329 379 40,000  Level Houston Center
11:08AM 31.1069 -90.2522 273° West 329 379 40,000  Level Houston Center
11:09AM 31.1122 -90.3589 273° West 329 379 40,000  Level Houston Center
11:10AM 31.1175 -90.4656 279° West 329 379 40,000  Level Houston Center
11:11AM 31.1308 -90.5622 274° West 329 379 40,000  Level Houston Center
11:12AM 31.1378 -90.6714 276° West 334 384 40,000  Level Houston Center
11:13AM 31.1469 -90.7781 274° West 334 384 40,000  Level Houston Center
11:14AM 31.1539 -90.8872 274° West 334 384 40,000  Level Houston Center
11:15AM 31.1608 -90.9986 275° West 334 384 40,000  Level Houston Center
11:16AM 31.1694 -91.1078 274° West 339 390 40,000  Level Houston Center
11:17AM 31.1761 -91.2169 274° West 339 390 40,000  Level Houston Center
11:18AM 31.1828 -91.3214 274° West 339 390 40,000  Level Houston Center
11:19AM 31.1892 -91.4306 275° West 334 384 40,000  Level Houston Center
11:20AM 31.1978 -91.5422 274° West 334 384 40,000  Level Houston Center
11:21AM 31.2042 -91.6489 274° West 339 390 40,000  Level Houston Center
11:22AM 31.2103 -91.7606 275° West 339 390 40,000  Level Houston Center
11:23AM 31.2186 -91.8675 274° West 339 390 40,000  Level Houston Center
11:24AM 31.2244 -91.9742 275° West 339 390 40,000 -60 Level Houston Center
11:25AM 31.2325 -92.0858 275° West 345 397 39,900 -60 Descending Houston Center
11:26AM 31.2406 -92.1953 274° West 345 397 39,900  Level Houston Center
11:27AM 31.2464 -92.3022 274° West 345 397 39,900  Level Houston Center
11:28AM 31.2522 -92.4089 277° West 345 397 39,900  Level Houston Center
11:29AM 31.2639 -92.5158 293° West 345 397 39,900  Level Houston Center
11:30AM 31.3028 -92.6208 293° West 340 391 39,900  Level Houston Center
11:31AM 31.3397 -92.7208 294° West 340 391 39,900 -180 Level Houston Center
11:32AM 31.3786 -92.8233 294° West 340 391 39,600 -540 Descending Houston Center
11:34AM 31.4589 -93.0325 293° West 343 395 38,400 -540 Descending Fort Worth Center
11:35AM 31.4958 -93.1353 293° West 343 395 38,000 -240 Descending Fort Worth Center
11:36AM 31.5325 -93.2361 295° West 343 395 38,000  Level Fort Worth Center
11:37AM 31.5711 -93.3342 293° West 343 395 38,000  Level Fort Worth Center
11:38AM 31.6056 -93.4278 292° West 332 382 38,000  Level Fort Worth Center
11:39AM 31.6400 -93.5264 291° West 332 382 38,000 -60 Level Fort Worth Center
11:40AM 31.6719 -93.6228 293° West 332 382 37,900 -360 Descending Fort Worth Center
11:41AM 31.7083 -93.7236 291° West 327 376 37,300 -600 Descending Fort Worth Center
11:42AM 31.7406 -93.8250 293° West 327 376 36,700 -600 Descending Fort Worth Center
11:43AM 31.7767 -93.9239 291° West 327 376 36,100 -360 Descending Fort Worth Center
11:44AM 31.8086 -94.0228 293° West 327 376 36,000 -60 Descending Fort Worth Center
11:45AM 31.8425 -94.1169 291° West 321 369 36,000  Level Fort Worth Center
11:46AM 31.8764 -94.2208 293° West 328 377 36,000  Level Fort Worth Center
11:47AM 31.9125 -94.3200 290° West 328 377 36,000  Level Fort Worth Center
11:48AM 31.9442 -94.4242 293° West 328 377 36,000  Level Fort Worth Center
11:49AM 31.9800 -94.5258 291° West 328 377 36,000  Level Fort Worth Center
11:50AM 32.0136 -94.6278 290° West 328 377 36,000  Level Fort Worth Center
11:51AM 32.0450 -94.7297 292° West 328 377 36,000  Level Fort Worth Center
11:52AM 32.0806 -94.8317 291° West 328 377 36,000  Level Fort Worth Center
11:53AM 32.1139 -94.9336 291° West 328 377 36,000 -480 Level Fort Worth Center
11:54AM 32.1472 -95.0383 291° West 328 377 35,100 -1,620 Descending Fort Worth Center
11:55AM 32.1781 -95.1356 293° West 323 372 32,800 -2,460 Descending Fort Worth Center
11:56AM 32.2156 -95.2403 290° West 323 372 30,200 -2,400 Descending Fort Worth Center
11:57AM 32.2486 -95.3450 293° West 330 380 28,100 -2,040 Descending Fort Worth Center
11:58AM 32.2878 -95.4522 291° West 351 404 26,200 -1,980 Descending Fort Worth Center
11:59AM 32.3231 -95.5622 291° West 351 404 24,200 -2,100 Descending Fort Worth Center
12:00PM 32.3581 -95.6722 290° West 357 411 22,000 -2,280 Descending Fort Worth Center
12:01PM 32.3906 -95.7772 291° West 351 404 19,700 -2,220 Descending Fort Worth Center
12:02PM 32.4233 -95.8800 293° West 346 398 17,600 -2,220 Descending Fort Worth Center
12:03PM 32.4653 -95.9947 289° West 331 381 14,900 -2,160 Descending FAA TRACON SMA TRACON (SMA)
12:04PM 32.4861 -96.0647 289° West 324 373 13,600 -1,860 Descending FAA TRACON SMA TRACON (SMA)
12:05PM 32.5058 -96.1333 291° West 317 365 12,400 -1,740 Descending FAA TRACON SMA TRACON (SMA)
12:05PM 32.5244 -96.1906 289° West 302 348 11,300 -1,800 Descending FAA TRACON SMA TRACON (SMA)
12:06PM 32.5417 -96.2517 290° West 280 322 10,100 -1,800 Descending FAA TRACON SMA TRACON (SMA)
12:07PM 32.5578 -96.3042 299° West 274 315 9,000 -1,080 Descending FAA TRACON SMA TRACON (SMA)
12:07PM 32.5836 -96.3589 305° West 275 316 8,700 -840 Descending FAA TRACON SMA TRACON (SMA)
12:08PM 32.6144 -96.4119 303° West 282 325 7,900 -1,140 Descending FAA TRACON SMA TRACON (SMA)
12:09PM 32.6439 -96.4653 306° West 279 321 7,200 -1,020 Descending FAA TRACON SMA TRACON (SMA)
12:09PM 32.6750 -96.5164 327° Northwest 279 321 6,500 -1,020 Descending FAA TRACON SMA TRACON (SMA)
12:10PM 32.7178 -96.5497 326° Northwest 297 342 5,900 -1,080 Descending FAA TRACON SMA TRACON (SMA)
12:11PM 32.7653 -96.5883 326° Northwest 297 342 5,100 -780 Descending FAA TRACON SMA TRACON (SMA)
12:11PM 32.8069 -96.6214 326° Northwest 290 334 4,900 -360 Descending FAA TRACON SMA TRACON (SMA)
12:12PM 32.8536 -96.6586 326° Northwest 292 336 4,700 -720 Descending FAA TRACON SMA TRACON (SMA)
12:13PM 32.8992 -96.6958 325° Northwest 286 329 4,000 -600 Descending FAA TRACON SMA TRACON (SMA)
12:13PM 32.9350 -96.7256 303° West 256 295 3,900 -120 Descending FAA TRACON SMA TRACON (SMA)
12:14PM 32.9581 -96.7686 283° West 226 260 3,900 -720 Level FAA TRACON SMA TRACON (SMA)
12:15PM 32.9675 -96.8156 284° West 208 239 3,000 -780 Descending FAA TRACON SMA TRACON (SMA)
12:15PM 32.9758 -96.8558 256° West 202 232 2,900 -780 Descending FAA TRACON SMA TRACON (SMA)
12:16PM 32.9664 -96.9006 241° Southwest 202 232 2,000 -780 Descending FAA TRACON SMA TRACON (SMA)
12:17PM 32.9506 -96.9350 200° South 178 205 1,900 -120 Descending FAA TRACON SMA TRACON (SMA)
12:17PM 32.9258 -96.9458 137° Southeast 164 189 1,900 -120 Level FAA TRACON SMA TRACON (SMA)
12:18PM 32.9042 -96.9217 136° Southeast 152 175 1,800 -420 Descending FAA TRACON SMA TRACON (SMA)
12:19PM 32.8872 -96.9022 138° Southeast 119 137 1,400 -540 Descending FAA TRACON SMA TRACON (SMA)
12:19PM 32.8725 -96.8864 135° Southeast 115 132 1,100 -660 Descending FAA TRACON SMA TRACON (SMA)
12:20PM 32.8569 -96.8678 135° Southeast 114 131 600 -780 Descending FAA TRACON SMA TRACON (SMA)